Amsterdam, Netherlands

2:13 PM CEST on August 28, 2014 (GMT +0200)
Schiphol | Change Station
CLOSE
Current Station
Personal Weather Station
Location: Badhoevedorp, NOORD HOLLAND
Elevation: -10 ft
Nearby Weather Stations

Elev -10 ft 52.33 °N, 4.78 °E | Updated 9 minutes ago

Overcast
Overcast
67.6 °F
Feels Like 67.6 °F
N
4.0
Wind Variable Wind from SSE
Gusts 13.0 mph

Today
High -- | Low -- °F
--% Chance of Precip.
Yesterday
High -- | Low -- °F
Precip. -- in
6:45 AM 8:37 PM
Waxing Crescent, 8% visible
Pressure 29.89 in
Visibility 6.2 miles
Clouds Few 2200 ft
Mostly Cloudy 2600 ft
Overcast 3200 ft
Dew Point 61 °F
Humidity 79%
Rainfall 0.00 in
Snow Depth Not available.
UV 1.1 out of 12
Pollen Not available.
Air Quality Not available.
Flu Activity Not available.
SPECI EHKD 281205Z AUTO 19015KT 9999 FEW022 BKN026 OVC032 20/16 Q1012 BLU 17012KT 9999 FEW020 SCT035 BKN050

More Conditions Fewer Conditions

Pressure 29.89 in
Visibility 6.2 miles
Clouds Few 2200 ft
Mostly Cloudy 2600 ft
Overcast 3200 ft
Dew Point 61 °F
Humidity 79%
Rainfall 0.00 in
Snow Depth Not available.
UV 1.1 out of 12
Pollen Not available.
Air Quality Not available.
Flu Activity Not available.
SPECI EHKD 281205Z AUTO 19015KT 9999 FEW022 BKN026 OVC032 20/16 Q1012 BLU 17012KT 9999 FEW020 SCT035 BKN050

More Conditions Fewer Conditions

10-Day Weather Forecast

Almanac

Astronomy

Aug. 28, 2014 Rise Set
Actual Time 6:45 AM CEST 8:37 PM CEST
Civil Twilight 6:09 AM CEST 9:14 PM CEST
Nautical Twilight 5:23 AM CEST 9:58 PM CEST
Astronomical Twilight 4:32 AM CEST 10:49 PM CEST
Moon 9:48 AM CEST 9:25 PM CEST
Length of Visible Light 15h 05m
Length of Day
13h 52m
Tomorrow will be 3m 54s shorter.
Waxing Crescent, 8% of the Moon is Illuminated
Today
Waxing Crescent
Sep 2
First Quarter
Sep 8
Full
Sep 15
Last Quarter
Sep 24
New

Yesterday's Extremes

Country Highs Country Lows

Community

WunderPhotos

Upload Photos

1,747,932 photos uploaded!

Nearby

Snow Depth

Not available.

Earthquake Activity

City Distance Mag. Time & Date
No recent earthquake activity has been reported nearby.
Minimum magnitude displayed is 2.5.

Coastal Water Temperatures

Place Temperature
No Stations Reporting

Nearby Weather Stations